Farrar, Iowa
Current Conditions -  °F | °C
As of 4:55 AM on Thursday 23 Oct 2014 (Local Time) from KIKV Reporting Station
Overcast Overcast  
Wind Chill: 11°   Ceiling: 9500
Heat Index: 11°   Visibility: 10mi
Dew Point: 10°   Wind: 6mph
Humidity: 94%   Direction: 160°SSE
Pressure: 30.04"   Gusts: NA
Location:  41.8542°N, 93.4051°W
Report Text: KIKV 230955Z AUTO 16005KT 10SM OVC095 11/10 A3004 RMK AO2
Loading
Personal Weather Stations






























Interactive Weather Map
Tropical Storm Tracking
New forecast layout! Learn more

10-Day Weather Forecast

Advertisements
Track Severe Weather on mobile